sensor_id;sensor_type;location;lat;lon;timestamp;pressure;altitude;pressure_sealevel;temperature;humidity
56825;BME280;42705;50.326;18.772;2024-02-16T00:04:05;98943.16;;;8.83;73.84
56825;BME280;42705;50.326;18.772;2024-02-16T00:09:29;98946.14;;;8.82;73.91
56825;BME280;42705;50.326;18.772;2024-02-16T00:14:51;98943.16;;;8.83;73.79
56825;BME280;42705;50.326;18.772;2024-02-16T00:20:13;98942.42;;;8.88;73.68
56825;BME280;42705;50.326;18.772;2024-02-16T00:25:35;98940.95;;;8.91;73.43
56825;BME280;42705;50.326;18.772;2024-02-16T00:30:57;98935.31;;;8.92;73.64
56825;BME280;42705;50.326;18.772;2024-02-16T00:36:19;98931.98;;;8.90;73.48
56825;BME280;42705;50.326;18.772;2024-02-16T00:41:41;98926.11;;;8.89;73.33
56825;BME280;42705;50.326;18.772;2024-02-16T00:47:03;98921.64;;;8.88;73.09
56825;BME280;42705;50.326;18.772;2024-02-16T00:52:27;98921.49;;;8.81;72.67
56825;BME280;42705;50.326;18.772;2024-02-16T00:57:49;98920.67;;;8.74;72.76
56825;BME280;42705;50.326;18.772;2024-02-16T01:03:11;98916.19;;;8.68;72.75
56825;BME280;42705;50.326;18.772;2024-02-16T01:08:34;98920.71;;;8.62;72.85
56825;BME280;42705;50.326;18.772;2024-02-16T01:13:56;98917.83;;;8.61;72.86
56825;BME280;42705;50.326;18.772;2024-02-16T01:19:18;98913.66;;;8.58;72.83
56825;BME280;42705;50.326;18.772;2024-02-16T01:24:40;98912.92;;;8.49;72.71
56825;BME280;42705;50.326;18.772;2024-02-16T01:30:02;98914.11;;;8.45;72.44
56825;BME280;42705;50.326;18.772;2024-02-16T01:35:24;98917.30;;;8.37;72.88
56825;BME280;42705;50.326;18.772;2024-02-16T01:40:46;98908.19;;;8.31;72.88
56825;BME280;42705;50.326;18.772;2024-02-16T01:46:09;98904.05;;;8.25;72.94
56825;BME280;42705;50.326;18.772;2024-02-16T01:51:32;98897.54;;;8.14;73.04
56825;BME280;42705;50.326;18.772;2024-02-16T01:56:54;98896.17;;;8.07;73.10
56825;BME280;42705;50.326;18.772;2024-02-16T02:02:17;98888.46;;;8.03;73.34
56825;BME280;42705;50.326;18.772;2024-02-16T02:07:39;98890.03;;;7.98;73.49
56825;BME280;42705;50.326;18.772;2024-02-16T02:13:00;98893.77;;;7.97;73.41
56825;BME280;42705;50.326;18.772;2024-02-16T02:18:22;98891.53;;;7.94;73.31
56825;BME280;42705;50.326;18.772;2024-02-16T02:23:46;98886.62;;;7.88;73.05
56825;BME280;42705;50.326;18.772;2024-02-16T02:29:08;98882.13;;;7.80;73.31
56825;BME280;42705;50.326;18.772;2024-02-16T02:34:30;98875.17;;;7.75;73.60
56825;BME280;42705;50.326;18.772;2024-02-16T02:39:52;98877.57;;;7.68;73.48
56825;BME280;42705;50.326;18.772;2024-02-16T02:45:14;98883.00;;;7.63;73.58
56825;BME280;42705;50.326;18.772;2024-02-16T02:50:36;98882.48;;;7.60;73.63
56825;BME280;42705;50.326;18.772;2024-02-16T02:55:58;98885.86;;;7.57;73.66
56825;BME280;42705;50.326;18.772;2024-02-16T03:01:20;98876.55;;;7.51;73.72
56825;BME280;42705;50.326;18.772;2024-02-16T03:06:42;98877.20;;;7.42;73.62
56825;BME280;42705;50.326;18.772;2024-02-16T03:12:04;98873.10;;;7.36;73.86
56825;BME280;42705;50.326;18.772;2024-02-16T03:17:30;98878.97;;;7.29;73.96
56825;BME280;42705;50.326;18.772;2024-02-16T03:22:52;98874.80;;;7.21;73.96
56825;BME280;42705;50.326;18.772;2024-02-16T03:28:14;98877.96;;;7.21;73.96
56825;BME280;42705;50.326;18.772;2024-02-16T03:33:37;98875.98;;;7.17;73.79
56825;BME280;42705;50.326;18.772;2024-02-16T03:38:58;98878.63;;;7.11;74.17
56825;BME280;42705;50.326;18.772;2024-02-16T03:44:20;98882.23;;;7.02;74.17
56825;BME280;42705;50.326;18.772;2024-02-16T03:49:43;98882.27;;;6.91;74.06
56825;BME280;42705;50.326;18.772;2024-02-16T03:55:05;98883.70;;;6.83;74.23
56825;BME280;42705;50.326;18.772;2024-02-16T04:00:27;98887.61;;;6.79;74.17
56825;BME280;42705;50.326;18.772;2024-02-16T04:05:49;98883.66;;;6.71;74.20
56825;BME280;42705;50.326;18.772;2024-02-16T04:11:12;98884.21;;;6.68;74.38
56825;BME280;42705;50.326;18.772;2024-02-16T04:16:34;98880.27;;;6.64;74.41
56825;BME280;42705;50.326;18.772;2024-02-16T04:21:56;98883.46;;;6.55;74.40
56825;BME280;42705;50.326;18.772;2024-02-16T04:27:18;98880.48;;;6.51;74.40
56825;BME280;42705;50.326;18.772;2024-02-16T04:32:40;98882.14;;;6.49;74.38
56825;BME280;42705;50.326;18.772;2024-02-16T04:38:02;98882.23;;;6.42;74.68
56825;BME280;42705;50.326;18.772;2024-02-16T04:43:24;98886.92;;;6.37;74.52
56825;BME280;42705;50.326;18.772;2024-02-16T04:48:47;98885.77;;;6.36;74.56
56825;BME280;42705;50.326;18.772;2024-02-16T04:54:09;98883.50;;;6.34;74.58
56825;BME280;42705;50.326;18.772;2024-02-16T04:59:31;98882.88;;;6.25;74.65
56825;BME280;42705;50.326;18.772;2024-02-16T05:04:53;98879.59;;;6.19;74.54
56825;BME280;42705;50.326;18.772;2024-02-16T05:10:16;98880.48;;;6.16;74.95
56825;BME280;42705;50.326;18.772;2024-02-16T05:15:39;98876.89;;;6.10;74.80
56825;BME280;42705;50.326;18.772;2024-02-16T05:21:01;98875.17;;;6.02;74.92
56825;BME280;42705;50.326;18.772;2024-02-16T05:26:22;98876.08;;;5.96;74.97
56825;BME280;42705;50.326;18.772;2024-02-16T05:31:44;98874.26;;;5.91;74.91
56825;BME280;42705;50.326;18.772;2024-02-16T05:37:06;98878.13;;;5.88;75.08
56825;BME280;42705;50.326;18.772;2024-02-16T05:42:28;98884.27;;;5.81;75.04
56825;BME280;42705;50.326;18.772;2024-02-16T05:47:50;98878.36;;;5.78;75.12
56825;BME280;42705;50.326;18.772;2024-02-16T05:53:12;98875.56;;;5.74;75.29
56825;BME280;42705;50.326;18.772;2024-02-16T05:58:34;98887.50;;;5.66;75.29
56825;BME280;42705;50.326;18.772;2024-02-16T06:03:56;98893.87;;;5.63;75.42
56825;BME280;42705;50.326;18.772;2024-02-16T06:09:19;98892.95;;;5.62;75.17
56825;BME280;42705;50.326;18.772;2024-02-16T06:14:41;98901.35;;;5.60;75.33
56825;BME280;42705;50.326;18.772;2024-02-16T06:20:03;98907.77;;;5.58;75.28
56825;BME280;42705;50.326;18.772;2024-02-16T06:25:26;98908.13;;;5.58;75.30
56825;BME280;42705;50.326;18.772;2024-02-16T06:30:48;98910.16;;;5.58;75.30
56825;BME280;42705;50.326;18.772;2024-02-16T06:36:10;98913.98;;;5.56;75.35
56825;BME280;42705;50.326;18.772;2024-02-16T06:41:32;98912.61;;;5.55;75.40
56825;BME280;42705;50.326;18.772;2024-02-16T06:46:54;98913.44;;;5.58;75.38
56825;BME280;42705;50.326;18.772;2024-02-16T06:52:16;98917.05;;;5.62;75.34
56825;BME280;42705;50.326;18.772;2024-02-16T06:57:38;98922.61;;;5.64;75.46
56825;BME280;42705;50.326;18.772;2024-02-16T07:03:00;98927.36;;;5.72;75.44
56825;BME280;42705;50.326;18.772;2024-02-16T07:08:23;98931.02;;;5.79;75.34
56825;BME280;42705;50.326;18.772;2024-02-16T07:13:45;98931.52;;;5.85;75.28
56825;BME280;42705;50.326;18.772;2024-02-16T07:19:08;98939.49;;;5.94;75.19
56825;BME280;42705;50.326;18.772;2024-02-16T07:24:30;98942.31;;;6.04;75.22
56825;BME280;42705;50.326;18.772;2024-02-16T07:29:52;98942.88;;;6.12;75.02
56825;BME280;42705;50.326;18.772;2024-02-16T07:35:15;98940.36;;;6.24;75.12
56825;BME280;42705;50.326;18.772;2024-02-16T07:40:37;98938.55;;;6.41;75.10
56825;BME280;42705;50.326;18.772;2024-02-16T07:45:58;98931.56;;;6.55;75.07
56825;BME280;42705;50.326;18.772;2024-02-16T07:51:20;98933.40;;;6.69;74.98
56825;BME280;42705;50.326;18.772;2024-02-16T07:56:43;98932.09;;;6.89;75.06
56825;BME280;42705;50.326;18.772;2024-02-16T08:02:05;98928.83;;;7.06;74.76
56825;BME280;42705;50.326;18.772;2024-02-16T08:07:28;98928.17;;;7.16;74.48
56825;BME280;42705;50.326;18.772;2024-02-16T08:12:49;98925.24;;;7.30;74.32
56825;BME280;42705;50.326;18.772;2024-02-16T08:18:12;98920.09;;;7.45;73.96
56825;BME280;42705;50.326;18.772;2024-02-16T08:23:34;98921.55;;;7.59;73.66
56825;BME280;42705;50.326;18.772;2024-02-16T08:28:57;98925.05;;;7.75;73.84
56825;BME280;42705;50.326;18.772;2024-02-16T08:34:19;98924.73;;;7.89;73.54
56825;BME280;42705;50.326;18.772;2024-02-16T08:39:41;98917.39;;;8.00;73.16
56825;BME280;42705;50.326;18.772;2024-02-16T08:45:03;98919.98;;;8.12;72.74
56825;BME280;42705;50.326;18.772;2024-02-16T08:50:25;98918.48;;;8.26;72.84
56825;BME280;42705;50.326;18.772;2024-02-16T08:55:47;98915.15;;;8.40;72.88
56825;BME280;42705;50.326;18.772;2024-02-16T09:01:09;98911.98;;;8.52;72.53
56825;BME280;42705;50.326;18.772;2024-02-16T09:06:31;98913.55;;;8.71;72.20
56825;BME280;42705;50.326;18.772;2024-02-16T09:11:53;98914.87;;;8.88;71.86
56825;BME280;42705;50.326;18.772;2024-02-16T09:17:15;98912.58;;;9.02;71.20
56825;BME280;42705;50.326;18.772;2024-02-16T09:22:40;98912.48;;;9.22;70.70
56825;BME280;42705;50.326;18.772;2024-02-16T09:28:02;98910.64;;;9.41;70.36
56825;BME280;42705;50.326;18.772;2024-02-16T09:33:24;98915.10;;;9.53;69.98
56825;BME280;42705;50.326;18.772;2024-02-16T09:38:48;98919.41;;;9.67;69.35
56825;BME280;42705;50.326;18.772;2024-02-16T09:44:11;98918.59;;;9.77;68.84
56825;BME280;42705;50.326;18.772;2024-02-16T09:49:33;98918.77;;;9.90;68.82
56825;BME280;42705;50.326;18.772;2024-02-16T09:54:55;98915.03;;;10.07;68.84
56825;BME280;42705;50.326;18.772;2024-02-16T10:00:17;98917.52;;;10.25;68.58
56825;BME280;42705;50.326;18.772;2024-02-16T10:05:39;98916.27;;;10.39;67.31
56825;BME280;42705;50.326;18.772;2024-02-16T10:11:03;98915.07;;;10.56;66.71
56825;BME280;42705;50.326;18.772;2024-02-16T10:16:25;98909.48;;;10.72;66.27
56825;BME280;42705;50.326;18.772;2024-02-16T10:21:49;98906.17;;;10.91;65.59
56825;BME280;42705;50.326;18.772;2024-02-16T10:27:15;98909.83;;;11.06;64.95
56825;BME280;42705;50.326;18.772;2024-02-16T10:32:40;98913.50;;;11.14;64.42
56825;BME280;42705;50.326;18.772;2024-02-16T10:38:03;98909.91;;;11.19;63.54
56825;BME280;42705;50.326;18.772;2024-02-16T10:43:28;98905.36;;;11.21;63.00
56825;BME280;42705;50.326;18.772;2024-02-16T10:48:51;98902.80;;;11.26;62.83
56825;BME280;42705;50.326;18.772;2024-02-16T10:54:17;98896.93;;;11.40;62.56
56825;BME280;42705;50.326;18.772;2024-02-16T10:59:44;98896.80;;;11.55;61.61
56825;BME280;42705;50.326;18.772;2024-02-16T11:05:08;98898.03;;;11.65;60.93
56825;BME280;42705;50.326;18.772;2024-02-16T11:10:30;98887.17;;;11.75;60.52
56825;BME280;42705;50.326;18.772;2024-02-16T11:16:00;98883.38;;;11.89;60.07
56825;BME280;42705;50.326;18.772;2024-02-16T11:21:22;98875.55;;;12.04;60.17
56825;BME280;42705;50.326;18.772;2024-02-16T11:26:44;98874.49;;;12.22;59.81
56825;BME280;42705;50.326;18.772;2024-02-16T11:32:07;98862.38;;;12.42;59.81
56825;BME280;42705;50.326;18.772;2024-02-16T11:37:30;98859.94;;;12.60;58.81
56825;BME280;42705;50.326;18.772;2024-02-16T11:42:58;98852.14;;;12.76;58.30
56825;BME280;42705;50.326;18.772;2024-02-16T11:48:24;98854.09;;;12.93;57.24
56825;BME280;42705;50.326;18.772;2024-02-16T11:53:55;98854.02;;;13.07;56.91
56825;BME280;42705;50.326;18.772;2024-02-16T11:59:19;98856.14;;;13.22;56.33
56825;BME280;42705;50.326;18.772;2024-02-16T12:04:41;98849.46;;;13.37;55.57
56825;BME280;42705;50.326;18.772;2024-02-16T12:10:06;98846.05;;;13.54;55.08
56825;BME280;42705;50.326;18.772;2024-02-16T12:15:30;98842.57;;;13.81;54.50
56825;BME280;42705;50.326;18.772;2024-02-16T12:21:03;98839.17;;;14.91;54.00
56825;BME280;42705;50.326;18.772;2024-02-16T12:26:26;98831.30;;;16.97;50.96
56825;BME280;42705;50.326;18.772;2024-02-16T12:31:48;98825.79;;;18.83;46.98
56825;BME280;42705;50.326;18.772;2024-02-16T12:37:11;98814.65;;;21.45;44.56
56825;BME280;42705;50.326;18.772;2024-02-16T12:42:33;98801.24;;;24.87;40.61
56825;BME280;42705;50.326;18.772;2024-02-16T12:47:55;98797.27;;;27.66;36.56
56825;BME280;42705;50.326;18.772;2024-02-16T12:53:17;98796.96;;;28.99;33.40
56825;BME280;42705;50.326;18.772;2024-02-16T12:58:39;98792.44;;;30.21;31.27
56825;BME280;42705;50.326;18.772;2024-02-16T13:04:01;98785.59;;;31.13;29.01
56825;BME280;42705;50.326;18.772;2024-02-16T13:09:23;98777.78;;;31.05;27.71
56825;BME280;42705;50.326;18.772;2024-02-16T13:14:45;98771.95;;;32.01;27.67
56825;BME280;42705;50.326;18.772;2024-02-16T13:20:07;98767.67;;;33.26;26.66
56825;BME280;42705;50.326;18.772;2024-02-16T13:25:31;98760.52;;;33.86;25.20
56825;BME280;42705;50.326;18.772;2024-02-16T13:30:53;98756.17;;;33.36;23.36
56825;BME280;42705;50.326;18.772;2024-02-16T13:36:15;98751.27;;;33.27;23.78
56825;BME280;42705;50.326;18.772;2024-02-16T13:41:36;98740.46;;;34.04;24.24
56825;BME280;42705;50.326;18.772;2024-02-16T13:46:59;98733.75;;;34.94;23.82
56825;BME280;42705;50.326;18.772;2024-02-16T13:52:20;98733.30;;;35.35;22.52
56825;BME280;42705;50.326;18.772;2024-02-16T13:57:42;98737.80;;;35.46;22.49
56825;BME280;42705;50.326;18.772;2024-02-16T14:03:06;98726.05;;;35.03;21.44
56825;BME280;42705;50.326;18.772;2024-02-16T14:08:30;98724.13;;;34.66;22.01
56825;BME280;42705;50.326;18.772;2024-02-16T14:13:52;98723.54;;;34.36;21.15
56825;BME280;42705;50.326;18.772;2024-02-16T14:19:14;98721.41;;;34.18;21.99
56825;BME280;42705;50.326;18.772;2024-02-16T14:24:36;98722.55;;;33.98;21.78
56825;BME280;42705;50.326;18.772;2024-02-16T14:29:59;98720.41;;;34.24;22.51
56825;BME280;42705;50.326;18.772;2024-02-16T14:35:21;98722.32;;;34.15;22.34
56825;BME280;42705;50.326;18.772;2024-02-16T14:40:43;98721.95;;;33.39;21.61
56825;BME280;42705;50.326;18.772;2024-02-16T14:46:07;98721.19;;;32.42;22.15
56825;BME280;42705;50.326;18.772;2024-02-16T14:51:29;98715.16;;;31.54;22.56
56825;BME280;42705;50.326;18.772;2024-02-16T14:56:52;98718.55;;;31.17;22.96
56825;BME280;42705;50.326;18.772;2024-02-16T15:02:17;98713.81;;;30.23;23.47
56825;BME280;42705;50.326;18.772;2024-02-16T15:07:38;98714.52;;;29.64;23.85
56825;BME280;42705;50.326;18.772;2024-02-16T15:13:00;98716.81;;;28.97;24.36
56825;BME280;42705;50.326;18.772;2024-02-16T15:18:22;98710.67;;;27.98;24.71
56825;BME280;42705;50.326;18.772;2024-02-16T15:23:44;98712.46;;;26.90;25.63
56825;BME280;42705;50.326;18.772;2024-02-16T15:29:07;98705.59;;;25.97;26.60
56825;BME280;42705;50.326;18.772;2024-02-16T15:34:29;98706.29;;;24.87;27.50
56825;BME280;42705;50.326;18.772;2024-02-16T15:39:51;98707.55;;;23.67;28.42
56825;BME280;42705;50.326;18.772;2024-02-16T15:45:18;98704.86;;;22.58;29.48
56825;BME280;42705;50.326;18.772;2024-02-16T15:50:40;98704.40;;;21.24;30.76
56825;BME280;42705;50.326;18.772;2024-02-16T15:56:03;98706.73;;;19.54;32.24
56825;BME280;42705;50.326;18.772;2024-02-16T16:01:26;98709.23;;;17.97;33.93
56825;BME280;42705;50.326;18.772;2024-02-16T16:06:53;98717.08;;;16.70;35.40
56825;BME280;42705;50.326;18.772;2024-02-16T16:12:16;98725.02;;;15.73;37.08
56825;BME280;42705;50.326;18.772;2024-02-16T16:17:38;98722.95;;;14.96;38.47
56825;BME280;42705;50.326;18.772;2024-02-16T16:23:00;98727.88;;;14.38;39.54
56825;BME280;42705;50.326;18.772;2024-02-16T16:28:25;98733.16;;;13.91;40.52
56825;BME280;42705;50.326;18.772;2024-02-16T16:33:47;98744.53;;;13.50;41.36
56825;BME280;42705;50.326;18.772;2024-02-16T16:39:09;98749.84;;;13.11;42.28
56825;BME280;42705;50.326;18.772;2024-02-16T16:44:31;98753.61;;;12.81;43.06
56825;BME280;42705;50.326;18.772;2024-02-16T16:49:53;98757.39;;;12.59;43.63
56825;BME280;42705;50.326;18.772;2024-02-16T16:55:22;98763.98;;;12.37;44.22
56825;BME280;42705;50.326;18.772;2024-02-16T17:00:59;98765.30;;;12.15;45.08
56825;BME280;42705;50.326;18.772;2024-02-16T17:06:22;98768.66;;;11.97;45.65
56825;BME280;42705;50.326;18.772;2024-02-16T17:11:45;98770.45;;;11.83;46.35
56825;BME280;42705;50.326;18.772;2024-02-16T17:17:06;98774.83;;;11.68;46.76
56825;BME280;42705;50.326;18.772;2024-02-16T17:22:28;98785.46;;;11.54;47.40
56825;BME280;42705;50.326;18.772;2024-02-16T17:27:50;98786.41;;;11.44;47.70
56825;BME280;42705;50.326;18.772;2024-02-16T17:33:13;98789.66;;;11.35;48.19
56825;BME280;42705;50.326;18.772;2024-02-16T17:38:35;98791.39;;;11.25;48.58
56825;BME280;42705;50.326;18.772;2024-02-16T17:43:57;98796.55;;;11.18;48.91
56825;BME280;42705;50.326;18.772;2024-02-16T17:49:22;98802.07;;;11.09;49.36
56825;BME280;42705;50.326;18.772;2024-02-16T17:54:44;98802.89;;;11.01;49.51
56825;BME280;42705;50.326;18.772;2024-02-16T18:00:06;98804.39;;;10.94;49.78
56825;BME280;42705;50.326;18.772;2024-02-16T18:05:28;98804.39;;;10.86;50.33
56825;BME280;42705;50.326;18.772;2024-02-16T18:10:50;98807.69;;;10.78;50.43
56825;BME280;42705;50.326;18.772;2024-02-16T18:16:14;98807.24;;;10.69;50.82
56825;BME280;42705;50.326;18.772;2024-02-16T18:21:39;98810.56;;;10.58;51.11
56825;BME280;42705;50.326;18.772;2024-02-16T18:27:01;98813.16;;;10.46;51.41
56825;BME280;42705;50.326;18.772;2024-02-16T18:32:24;98820.83;;;10.36;51.69
56825;BME280;42705;50.326;18.772;2024-02-16T18:37:46;98821.30;;;10.24;52.01
56825;BME280;42705;50.326;18.772;2024-02-16T18:43:08;98819.23;;;10.11;52.29
56825;BME280;42705;50.326;18.772;2024-02-16T18:48:30;98817.58;;;9.99;52.73
56825;BME280;42705;50.326;18.772;2024-02-16T18:53:52;98822.30;;;9.86;53.07
56825;BME280;42705;50.326;18.772;2024-02-16T18:59:16;98817.77;;;9.73;53.25
56825;BME280;42705;50.326;18.772;2024-02-16T19:04:38;98816.00;;;9.63;53.65
56825;BME280;42705;50.326;18.772;2024-02-16T19:09:59;98816.84;;;9.54;54.23
56825;BME280;42705;50.326;18.772;2024-02-16T19:15:22;98814.39;;;9.48;54.68
56825;BME280;42705;50.326;18.772;2024-02-16T19:20:47;98812.92;;;9.45;54.83
56825;BME280;42705;50.326;18.772;2024-02-16T19:26:12;98813.51;;;9.41;55.55
56825;BME280;42705;50.326;18.772;2024-02-16T19:31:34;98820.33;;;9.37;55.39
56825;BME280;42705;50.326;18.772;2024-02-16T19:36:56;98821.15;;;9.31;55.91
56825;BME280;42705;50.326;18.772;2024-02-16T19:42:21;98818.90;;;9.26;56.41
56825;BME280;42705;50.326;18.772;2024-02-16T19:47:45;98822.71;;;9.26;56.86
56825;BME280;42705;50.326;18.772;2024-02-16T19:53:07;98829.11;;;9.25;57.03
56825;BME280;42705;50.326;18.772;2024-02-16T19:58:31;98827.38;;;9.20;57.59
56825;BME280;42705;50.326;18.772;2024-02-16T20:03:54;98832.55;;;9.19;57.83
56825;BME280;42705;50.326;18.772;2024-02-16T20:09:16;98836.09;;;9.18;58.17
56825;BME280;42705;50.326;18.772;2024-02-16T20:14:40;98834.59;;;9.19;58.45
56825;BME280;42705;50.326;18.772;2024-02-16T20:20:05;98840.21;;;9.25;58.63
56825;BME280;42705;50.326;18.772;2024-02-16T20:25:27;98831.31;;;9.28;58.67
56825;BME280;42705;50.326;18.772;2024-02-16T20:30:49;98833.25;;;9.25;58.91
56825;BME280;42705;50.326;18.772;2024-02-16T20:36:11;98836.77;;;9.23;58.96
56825;BME280;42705;50.326;18.772;2024-02-16T20:41:33;98834.13;;;9.21;58.78
56825;BME280;42705;50.326;18.772;2024-02-16T20:46:55;98839.09;;;9.18;59.19
56825;BME280;42705;50.326;18.772;2024-02-16T20:52:18;98840.23;;;9.16;59.48
56825;BME280;42705;50.326;18.772;2024-02-16T20:57:40;98845.31;;;9.20;59.31
56825;BME280;42705;50.326;18.772;2024-02-16T21:03:02;98842.52;;;9.25;59.48
56825;BME280;42705;50.326;18.772;2024-02-16T21:08:24;98843.61;;;9.24;59.18
56825;BME280;42705;50.326;18.772;2024-02-16T21:13:47;98841.91;;;9.24;59.62
56825;BME280;42705;50.326;18.772;2024-02-16T21:19:09;98838.92;;;9.22;59.34
56825;BME280;42705;50.326;18.772;2024-02-16T21:24:31;98839.10;;;9.22;58.91
56825;BME280;42705;50.326;18.772;2024-02-16T21:29:53;98845.74;;;9.22;58.83
56825;BME280;42705;50.326;18.772;2024-02-16T21:35:15;98849.06;;;9.21;58.95
56825;BME280;42705;50.326;18.772;2024-02-16T21:40:43;98848.10;;;9.25;58.94
56825;BME280;42705;50.326;18.772;2024-02-16T21:46:06;98846.65;;;9.28;58.96
56825;BME280;42705;50.326;18.772;2024-02-16T21:51:30;98846.55;;;9.30;58.79
56825;BME280;42705;50.326;18.772;2024-02-16T21:56:53;98848.41;;;9.30;58.52
56825;BME280;42705;50.326;18.772;2024-02-16T22:02:14;98844.47;;;9.29;58.45
56825;BME280;42705;50.326;18.772;2024-02-16T22:07:36;98850.31;;;9.28;58.38
56825;BME280;42705;50.326;18.772;2024-02-16T22:12:58;98851.29;;;9.26;58.43
56825;BME280;42705;50.326;18.772;2024-02-16T22:18:20;98854.63;;;9.24;58.17
56825;BME280;42705;50.326;18.772;2024-02-16T22:23:43;98853.16;;;9.20;58.31
56825;BME280;42705;50.326;18.772;2024-02-16T22:29:05;98853.63;;;9.17;58.44
56825;BME280;42705;50.326;18.772;2024-02-16T22:34:26;98861.77;;;9.13;58.21
56825;BME280;42705;50.326;18.772;2024-02-16T22:39:48;98863.88;;;9.10;58.10
56825;BME280;42705;50.326;18.772;2024-02-16T22:45:13;98859.61;;;9.07;58.06
56825;BME280;42705;50.326;18.772;2024-02-16T22:50:35;98862.91;;;9.02;58.01
56825;BME280;42705;50.326;18.772;2024-02-16T22:55:57;98866.45;;;8.97;58.10
56825;BME280;42705;50.326;18.772;2024-02-16T23:01:19;98866.59;;;8.93;58.27
56825;BME280;42705;50.326;18.772;2024-02-16T23:06:41;98872.07;;;8.90;58.25
56825;BME280;42705;50.326;18.772;2024-02-16T23:12:03;98863.04;;;8.87;58.41
56825;BME280;42705;50.326;18.772;2024-02-16T23:17:25;98862.64;;;8.83;58.27
56825;BME280;42705;50.326;18.772;2024-02-16T23:23:05;98867.70;;;8.81;58.26
56825;BME280;42705;50.326;18.772;2024-02-16T23:28:27;98866.52;;;8.78;58.64
56825;BME280;42705;50.326;18.772;2024-02-16T23:33:50;98871.84;;;8.75;58.33
56825;BME280;42705;50.326;18.772;2024-02-16T23:39:12;98871.41;;;8.72;58.47
56825;BME280;42705;50.326;18.772;2024-02-16T23:44:34;98868.97;;;8.66;58.28
56825;BME280;42705;50.326;18.772;2024-02-16T23:49:56;98870.58;;;8.64;58.65
56825;BME280;42705;50.326;18.772;2024-02-16T23:55:18;98877.09;;;8.61;58.57
